createdAt,value
2019-04-21T00:00:06.170Z,97.00
2019-04-21T00:02:37.742Z,97.20
2019-04-21T00:05:24.722Z,97.50
2019-04-21T00:08:05.038Z,96.10
2019-04-21T00:10:30.135Z,96.70
2019-04-21T00:12:52.309Z,96.40
2019-04-21T00:15:23.046Z,96.40
2019-04-21T00:17:43.559Z,96.80
2019-04-21T00:20:22.443Z,96.10
2019-04-21T00:22:54.653Z,96.20
2019-04-21T00:25:27.536Z,96.30
2019-04-21T00:28:04.685Z,96.60
2019-04-21T00:30:34.177Z,96.30
2019-04-21T00:32:56.353Z,96.10
2019-04-21T00:35:22.627Z,96.20
2019-04-21T00:38:08.332Z,96.90
2019-04-21T00:40:41.938Z,96.50
2019-04-21T00:43:12.257Z,97.20
2019-04-21T00:45:37.561Z,97.90
2019-04-21T00:48:16.620Z,98.70
2019-04-21T00:50:51.409Z,98.50
2019-04-21T00:53:29.626Z,98.60
2019-04-21T00:55:59.398Z,98.80
2019-04-21T00:58:28.020Z,99.40
2019-04-21T01:00:58.641Z,99.40
2019-04-21T01:03:26.130Z,99.80
2019-04-21T01:05:58.845Z,99.90
2019-04-21T01:08:28.215Z,99.90
2019-04-21T01:10:49.877Z,99.90
2019-04-21T01:13:39.598Z,99.90
2019-04-21T01:15:59.097Z,99.90
2019-04-21T01:18:32.569Z,99.90
2019-04-21T01:20:42.731Z,99.90
2019-04-21T01:23:12.700Z,99.90
2019-04-21T01:25:57.181Z,99.90
2019-04-21T01:28:29.315Z,99.90
2019-04-21T01:31:07.465Z,99.90
2019-04-21T01:33:39.707Z,99.90
2019-04-21T01:36:04.396Z,99.90
2019-04-21T01:38:45.959Z,99.90
2019-04-21T01:41:17.979Z,99.90
2019-04-21T01:43:38.407Z,99.90
2019-04-21T01:46:09.300Z,99.90
2019-04-21T01:48:34.253Z,99.90
2019-04-21T01:51:05.415Z,99.90
2019-04-21T01:54:12.509Z,99.90
2019-04-21T01:56:57.021Z,99.90
2019-04-21T01:59:25.393Z,99.90
2019-04-21T02:02:06.709Z,99.90
2019-04-21T02:04:36.277Z,99.90
2019-04-21T02:07:02.797Z,99.90
2019-04-21T02:09:38.126Z,99.90
2019-04-21T02:12:10.310Z,99.90
2019-04-21T02:14:45.872Z,99.90
2019-04-21T02:17:13.237Z,99.90
2019-04-21T02:19:35.976Z,99.90
2019-04-21T02:22:04.920Z,99.90
2019-04-21T02:24:49.386Z,99.90
2019-04-21T02:27:14.887Z,99.90
2019-04-21T02:29:47.156Z,99.90
2019-04-21T02:32:26.214Z,99.90
2019-04-21T02:35:04.169Z,99.90
2019-04-21T02:42:26.422Z,99.90
2019-04-21T02:45:00.308Z,99.90
2019-04-21T02:47:36.989Z,99.90
2019-04-21T02:52:39.435Z,99.90
2019-04-21T02:55:02.912Z,99.90
2019-04-21T02:57:39.014Z,99.90
2019-04-21T03:00:13.666Z,99.90
2019-04-21T03:02:54.747Z,99.90
2019-04-21T03:05:50.521Z,99.90
2019-04-21T03:08:28.099Z,99.90
2019-04-21T03:10:53.768Z,99.90
2019-04-21T03:18:30.252Z,99.90
2019-04-21T03:21:03.197Z,99.90
2019-04-21T03:23:31.822Z,99.90
2019-04-21T03:26:02.111Z,99.90
2019-04-21T03:28:30.566Z,99.90
2019-04-21T03:31:19.739Z,99.90
2019-04-21T03:34:22.167Z,99.90
2019-04-21T03:38:37.498Z,99.90
2019-04-21T03:41:01.445Z,99.90
2019-04-21T03:45:58.517Z,99.90
2019-04-21T03:48:36.130Z,99.90
2019-04-21T03:51:07.230Z,99.90
2019-04-21T03:53:31.796Z,99.90
2019-04-21T03:56:01.313Z,99.90
2019-04-21T03:58:46.365Z,99.90
2019-04-21T04:01:38.695Z,99.90
2019-04-21T04:04:30.374Z,99.90
2019-04-21T04:07:04.472Z,99.90
2019-04-21T04:09:44.564Z,99.90
2019-04-21T04:12:13.341Z,99.90
2019-04-21T04:14:47.459Z,99.90
2019-04-21T04:19:45.088Z,99.90
2019-04-21T04:24:49.936Z,99.90
2019-04-21T04:27:33.653Z,99.90
2019-04-21T04:29:52.943Z,99.90
2019-04-21T04:32:23.162Z,99.90
2019-04-21T04:38:07.050Z,99.90
2019-04-21T04:40:34.667Z,99.90
2019-04-21T04:43:17.559Z,99.90
2019-04-21T04:48:19.721Z,99.90
2019-04-21T04:50:49.367Z,99.90
2019-04-21T04:53:12.857Z,99.90
2019-04-21T04:58:56.141Z,99.90
2019-04-21T05:00:48.346Z,99.90
2019-04-21T05:03:18.849Z,99.90
2019-04-21T05:09:03.511Z,99.90
2019-04-21T05:14:03.061Z,99.90
2019-04-21T05:19:10.535Z,99.90
2019-04-21T05:23:51.165Z,99.90
2019-04-21T05:26:14.672Z,99.90
2019-04-21T05:28:44.806Z,99.90
2019-04-21T05:31:47.688Z,99.90
2019-04-21T05:34:17.135Z,99.90
2019-04-21T05:37:00.958Z,99.90
2019-04-21T05:39:40.694Z,99.90
2019-04-21T05:42:02.791Z,99.90
2019-04-21T05:44:58.299Z,99.90
2019-04-21T05:47:34.838Z,99.90
2019-04-21T05:49:49.820Z,99.90
2019-04-21T05:52:21.422Z,99.90
2019-04-21T05:55:00.806Z,99.90
2019-04-21T05:57:28.912Z,99.90
2019-04-21T05:59:59.450Z,99.90
2019-04-21T06:02:30.667Z,99.90
2019-04-21T06:07:33.487Z,99.90
2019-04-21T06:10:25.107Z,99.90
2019-04-21T06:12:40.770Z,99.90
2019-04-21T06:15:10.102Z,99.90
2019-04-21T06:17:44.197Z,99.40
2019-04-21T06:20:13.623Z,99.00
2019-04-21T06:22:46.753Z,97.50
2019-04-21T06:27:51.081Z,96.80
2019-04-21T06:30:29.023Z,97.60
2019-04-21T06:32:59.396Z,96.70
2019-04-21T06:35:52.909Z,96.80
2019-04-21T06:38:13.229Z,96.40
2019-04-21T06:40:43.751Z,96.10
2019-04-21T06:43:18.418Z,96.20
2019-04-21T06:45:50.690Z,96.30
2019-04-21T06:48:16.895Z,96.90
2019-04-21T06:50:49.253Z,97.20
2019-04-21T06:53:10.764Z,97.60
2019-04-21T06:55:43.536Z,97.70
2019-04-21T06:58:11.270Z,97.50
2019-04-21T07:00:42.426Z,97.30
2019-04-21T07:03:20.588Z,96.80
2019-04-21T07:05:54.725Z,97.20
2019-04-21T07:08:34.729Z,95.90
2019-04-21T07:10:44.811Z,95.80
2019-04-21T07:13:17.204Z,95.10
2019-04-21T07:15:50.154Z,95.50
2019-04-21T07:18:19.203Z,94.40
2019-04-21T07:20:53.176Z,94.80
2019-04-21T07:23:26.041Z,94.60
2019-04-21T07:25:53.112Z,94.30
2019-04-21T07:28:25.779Z,93.50
2019-04-21T07:30:59.370Z,92.80
2019-04-21T07:35:59.427Z,92.80
2019-04-21T07:38:25.648Z,92.60
2019-04-21T07:40:45.936Z,92.30
2019-04-21T07:43:20.510Z,91.80
2019-04-21T07:45:55.466Z,91.90
2019-04-21T07:48:38.095Z,92.00
2019-04-21T07:51:31.737Z,91.70
2019-04-21T07:54:08.656Z,91.30
2019-04-21T07:56:19.126Z,91.80
2019-04-21T08:01:33.713Z,91.00
2019-04-21T08:03:59.458Z,90.20
2019-04-21T08:06:33.947Z,90.80
2019-04-21T08:08:59.427Z,91.10
2019-04-21T08:11:31.302Z,90.00
2019-04-21T08:14:02.835Z,89.70
2019-04-21T08:16:42.106Z,88.50
2019-04-21T08:19:09.753Z,89.30
2019-04-21T08:21:43.292Z,89.80
2019-04-21T08:24:07.693Z,88.10
2019-04-21T08:26:45.154Z,86.00
2019-04-21T08:29:20.801Z,90.20
2019-04-21T08:31:49.419Z,89.50
2019-04-21T08:34:13.943Z,86.20
2019-04-21T08:36:40.716Z,86.10
2019-04-21T08:39:16.236Z,87.80
2019-04-21T08:41:45.179Z,87.60
2019-04-21T08:44:20.932Z,86.50
2019-04-21T08:46:49.153Z,85.30
2019-04-21T08:49:15.029Z,84.30
2019-04-21T08:51:57.768Z,84.50
2019-04-21T08:54:25.012Z,83.40
2019-04-21T08:57:10.170Z,82.60
2019-04-21T09:00:08.353Z,82.90
2019-04-21T09:02:47.519Z,80.60
2019-04-21T09:05:12.610Z,81.40
2019-04-21T09:07:47.593Z,79.20
2019-04-21T09:10:20.420Z,80.10
2019-04-21T09:12:46.575Z,80.70
2019-04-21T09:15:17.071Z,81.70
2019-04-21T09:17:41.417Z,77.10
2019-04-21T09:20:25.338Z,78.90
2019-04-21T09:22:50.076Z,80.00
2019-04-21T09:25:26.579Z,77.50
2019-04-21T09:27:47.318Z,78.50
2019-04-21T09:30:05.084Z,77.60
2019-04-21T09:32:35.288Z,76.60
2019-04-21T09:35:10.280Z,75.40
2019-04-21T09:37:45.961Z,74.10
2019-04-21T09:40:06.970Z,75.10
2019-04-21T09:42:46.992Z,73.60
2019-04-21T09:45:09.984Z,72.10
2019-04-21T09:47:47.045Z,70.50
2019-04-21T09:50:10.254Z,71.20
2019-04-21T09:52:48.840Z,69.10
2019-04-21T09:55:16.100Z,66.10
2019-04-21T09:57:49.580Z,67.00
2019-04-21T10:00:19.466Z,69.60
2019-04-21T10:02:56.779Z,68.20
2019-04-21T10:05:16.865Z,66.20
2019-04-21T10:07:46.496Z,64.90
2019-04-21T10:10:17.141Z,64.40
2019-04-21T10:12:47.622Z,63.20
2019-04-21T10:15:16.966Z,62.80
2019-04-21T10:17:52.072Z,63.40
2019-04-21T10:20:22.718Z,62.30
2019-04-21T10:22:52.996Z,61.70
2019-04-21T10:25:22.831Z,59.20
2019-04-21T10:27:52.839Z,60.90
2019-04-21T10:30:22.532Z,60.70
2019-04-21T10:32:52.431Z,59.50
2019-04-21T10:35:23.023Z,58.60
2019-04-21T10:38:05.559Z,58.30
2019-04-21T10:40:23.562Z,58.60
2019-04-21T10:42:52.502Z,58.70
2019-04-21T10:45:21.592Z,58.50
2019-04-21T10:47:50.927Z,59.20
2019-04-21T10:50:20.449Z,59.60
2019-04-21T10:53:09.198Z,58.40
2019-04-21T10:55:58.999Z,58.20
2019-04-21T10:58:36.292Z,58.10
2019-04-21T11:01:13.797Z,57.90
2019-04-21T11:03:48.780Z,58.80
2019-04-21T11:06:19.314Z,58.90
2019-04-21T11:08:54.094Z,58.20
2019-04-21T11:11:25.837Z,58.20
2019-04-21T11:13:55.158Z,58.00
2019-04-21T11:16:24.179Z,57.00
2019-04-21T11:18:53.678Z,56.80
2019-04-21T11:21:23.010Z,56.30
2019-04-21T11:23:52.190Z,56.30
2019-04-21T11:26:22.055Z,55.50
2019-04-21T11:28:52.470Z,55.90
2019-04-21T11:31:22.931Z,56.30
2019-04-21T11:33:53.288Z,55.50
2019-04-21T11:36:22.727Z,56.80
2019-04-21T11:39:16.839Z,56.60
2019-04-21T11:41:34.165Z,57.10
2019-04-21T11:44:04.961Z,57.80
2019-04-21T11:46:34.272Z,58.20
2019-04-21T11:49:04.463Z,58.70
2019-04-21T11:51:33.669Z,57.80
2019-04-21T11:54:02.638Z,58.40
2019-04-21T11:56:32.749Z,58.70
2019-04-21T11:59:02.073Z,58.50
2019-04-21T12:01:31.900Z,59.30
2019-04-21T12:04:03.385Z,57.60
2019-04-21T12:06:38.599Z,56.80
2019-04-21T12:09:05.271Z,57.00
2019-04-21T12:11:35.570Z,56.70
2019-04-21T12:14:05.903Z,57.50
2019-04-21T12:16:35.225Z,58.60
2019-04-21T12:19:05.111Z,59.20
2019-04-21T12:21:47.951Z,59.60
2019-04-21T12:24:05.240Z,60.60
2019-04-21T12:26:34.249Z,59.80
2019-04-21T12:29:03.915Z,59.00
2019-04-21T12:31:53.783Z,59.50
2019-04-21T12:34:23.766Z,58.10
2019-04-21T12:36:53.120Z,56.00
2019-04-21T12:39:23.014Z,56.90
2019-04-21T12:41:52.028Z,57.50
2019-04-21T12:44:22.464Z,57.70
2019-04-21T12:46:51.977Z,57.90
2019-04-21T12:49:22.078Z,58.10
2019-04-21T12:51:51.557Z,57.30
2019-04-21T12:54:21.660Z,56.20
2019-04-21T12:56:51.721Z,55.30
2019-04-21T12:59:21.236Z,54.10
2019-04-21T13:01:50.756Z,55.30
2019-04-21T13:04:20.041Z,57.20
2019-04-21T13:06:49.839Z,56.70
2019-04-21T13:09:20.497Z,56.60
2019-04-21T13:11:50.907Z,55.70
2019-04-21T13:14:24.035Z,55.80
2019-04-21T13:16:53.599Z,53.80
2019-04-21T13:19:23.164Z,54.40
2019-04-21T13:21:56.071Z,55.50
2019-04-21T13:24:26.144Z,55.00
2019-04-21T13:26:58.437Z,56.20
2019-04-21T13:29:26.307Z,54.60
2019-04-21T13:31:56.256Z,54.20
2019-04-21T13:34:26.279Z,53.90
2019-04-21T13:36:57.237Z,53.40
2019-04-21T13:40:19.513Z,53.80
2019-04-21T13:42:31.403Z,52.60
2019-04-21T13:44:53.031Z,52.90
2019-04-21T13:47:24.829Z,53.70
2019-04-21T13:49:56.410Z,54.00
2019-04-21T13:52:25.222Z,52.40
2019-04-21T13:54:54.135Z,53.90
2019-04-21T13:57:23.091Z,52.80
2019-04-21T13:59:53.052Z,53.00
2019-04-21T14:02:22.659Z,53.10
2019-04-21T14:04:51.876Z,53.00
2019-04-21T14:07:20.927Z,52.20
2019-04-21T14:09:56.098Z,52.60
2019-04-21T14:12:21.258Z,51.40
2019-04-21T14:14:50.487Z,53.30
2019-04-21T14:17:21.119Z,53.30
2019-04-21T14:19:51.030Z,53.10
2019-04-21T14:22:22.202Z,53.40
2019-04-21T14:24:52.051Z,52.50
2019-04-21T14:27:21.254Z,50.90
2019-04-21T14:29:51.355Z,51.50
2019-04-21T14:32:22.260Z,49.90
2019-04-21T14:34:53.865Z,50.80
2019-04-21T14:37:22.638Z,50.50
2019-04-21T14:39:59.871Z,51.30
2019-04-21T14:42:22.740Z,52.20
2019-04-21T14:44:51.746Z,52.90
2019-04-21T14:47:40.040Z,53.10
2019-04-21T14:50:19.433Z,51.10
2019-04-21T14:53:09.798Z,51.90
2019-04-21T14:55:41.662Z,50.60
2019-04-21T14:58:10.869Z,50.90
2019-04-21T15:00:55.701Z,51.50
2019-04-21T15:03:25.828Z,51.20
2019-04-21T15:05:55.714Z,50.20
2019-04-21T15:08:25.099Z,51.40
2019-04-21T15:10:54.918Z,50.80
2019-04-21T15:13:24.059Z,49.70
2019-04-21T15:15:54.279Z,50.30
2019-04-21T15:18:23.547Z,50.40
2019-04-21T18:30:38.094Z,64.60
2019-04-21T18:33:15.626Z,63.80
2019-04-21T18:35:57.893Z,65.80
2019-04-21T18:39:14.272Z,66.50
2019-04-21T18:41:36.538Z,68.20
2019-04-21T18:44:53.478Z,69.90
2019-04-21T18:47:09.577Z,66.70
2019-04-21T18:49:29.008Z,69.80
2019-04-21T18:52:16.827Z,71.60
2019-04-21T18:54:53.295Z,72.70
2019-04-21T18:57:18.710Z,75.00
2019-04-21T18:59:40.167Z,76.60
2019-04-21T19:02:11.211Z,78.50
2019-04-21T19:04:40.551Z,77.90
2019-04-21T19:07:19.868Z,78.70
2019-04-21T19:10:14.882Z,79.00
2019-04-21T19:12:42.408Z,80.10
2019-04-21T19:14:54.816Z,79.70
2019-04-21T19:18:05.067Z,80.40
2019-04-21T19:20:07.702Z,81.40
2019-04-21T19:22:34.162Z,82.60
2019-04-21T19:25:16.432Z,81.60
2019-04-21T19:27:32.174Z,82.40
2019-04-21T19:30:12.234Z,82.00
2019-04-21T19:32:49.684Z,82.80
2019-04-21T19:34:49.242Z,83.40
2019-04-21T19:37:21.971Z,84.00
2019-04-21T19:40:00.509Z,82.30
2019-04-21T19:42:29.115Z,82.90
2019-04-21T19:45:08.894Z,84.30
2019-04-21T19:47:41.096Z,86.00
2019-04-21T19:50:10.835Z,86.40
2019-04-21T19:52:34.500Z,87.90
2019-04-21T19:54:53.045Z,87.80
2019-04-21T19:57:23.308Z,86.60
2019-04-21T19:59:55.872Z,87.30
2019-04-21T20:02:22.869Z,86.80
2019-04-21T20:05:00.839Z,87.90
2019-04-21T20:07:44.389Z,89.40
2019-04-21T20:10:20.876Z,89.30
2019-04-21T20:12:45.548Z,89.10
2019-04-21T20:15:25.553Z,89.80
2019-04-21T20:17:42.436Z,90.20
2019-04-21T20:20:00.470Z,90.00
2019-04-21T20:22:35.459Z,90.00
2019-04-21T20:25:07.887Z,90.50
2019-04-21T20:27:38.540Z,90.90
2019-04-21T20:30:21.938Z,90.90
2019-04-21T20:33:03.187Z,90.70
2019-04-21T20:35:32.333Z,91.60
2019-04-21T20:37:50.133Z,92.00
2019-04-21T20:40:17.510Z,92.30
2019-04-21T20:42:49.801Z,91.70
2019-04-21T20:45:41.672Z,92.40
2019-04-21T20:47:42.906Z,92.30
2019-04-21T20:50:19.721Z,92.70
2019-04-21T20:52:58.519Z,92.10
2019-04-21T20:55:19.989Z,92.30
2019-04-21T20:57:55.014Z,92.60
2019-04-21T21:00:30.148Z,92.30
2019-04-21T21:03:02.606Z,92.60
2019-04-21T21:05:27.673Z,93.30
2019-04-21T21:08:03.630Z,93.40
2019-04-21T21:10:34.721Z,93.90
2019-04-21T21:13:14.253Z,93.30
2019-04-21T21:15:41.282Z,93.70
2019-04-21T21:18:16.075Z,93.50
2019-04-21T21:20:35.487Z,93.60
2019-04-21T21:23:02.888Z,93.40
2019-04-21T21:25:44.635Z,93.10
2019-04-21T21:28:03.225Z,93.20
2019-04-21T21:30:35.174Z,92.80
2019-04-21T21:33:12.567Z,93.70
2019-04-21T21:35:37.121Z,93.70
2019-04-21T21:38:13.139Z,94.30
2019-04-21T21:40:42.012Z,95.10
2019-04-21T21:42:57.277Z,94.90
2019-04-21T21:45:30.401Z,94.80
2019-04-21T21:48:11.458Z,95.70
2019-04-21T21:50:38.672Z,96.90
2019-04-21T21:53:06.542Z,97.40
2019-04-21T21:55:32.326Z,97.80
2019-04-21T21:58:02.441Z,98.20
2019-04-21T22:00:32.247Z,97.90
2019-04-21T22:03:10.493Z,97.80
2019-04-21T22:05:42.638Z,95.70
2019-04-21T22:08:04.603Z,95.60
2019-04-21T22:10:34.965Z,95.70
2019-04-21T22:13:11.826Z,95.80
2019-04-21T22:15:35.599Z,95.70
2019-04-21T22:18:25.270Z,95.90
2019-04-21T22:20:55.010Z,95.60
2019-04-21T22:23:13.002Z,95.20
2019-04-21T22:25:41.138Z,95.70
2019-04-21T22:28:09.582Z,96.00
2019-04-21T22:30:42.908Z,95.60
2019-04-21T22:33:13.766Z,95.10
2019-04-21T22:35:46.319Z,95.70
2019-04-21T22:38:24.717Z,96.00
2019-04-21T22:40:55.484Z,96.10
2019-04-21T22:43:24.236Z,95.80
2019-04-21T22:45:45.428Z,96.30
2019-04-21T22:48:18.205Z,95.70
2019-04-21T22:50:46.560Z,96.00
2019-04-21T22:53:17.212Z,96.70
2019-04-21T22:55:49.614Z,96.20
2019-04-21T22:58:23.611Z,95.80
2019-04-21T23:00:54.178Z,95.40
2019-04-21T23:03:21.344Z,96.00
2019-04-21T23:05:51.857Z,95.20
2019-04-21T23:08:26.634Z,95.00
2019-04-21T23:10:57.832Z,95.30
2019-04-21T23:13:25.081Z,95.50
2019-04-21T23:15:57.246Z,96.10
2019-04-21T23:18:39.069Z,96.00
2019-04-21T23:21:11.533Z,96.30
2019-04-21T23:23:44.361Z,95.90
2019-04-21T23:26:14.403Z,96.00
2019-04-21T23:28:45.776Z,96.40
2019-04-21T23:31:18.706Z,96.80
2019-04-21T23:33:29.020Z,97.50
2019-04-21T23:36:07.431Z,97.60
2019-04-21T23:38:36.805Z,97.00
2019-04-21T23:41:03.454Z,97.00
2019-04-21T23:43:33.029Z,97.30
2019-04-21T23:46:08.671Z,97.70
2019-04-21T23:48:44.017Z,97.90
2019-04-21T23:51:15.933Z,98.20
2019-04-21T23:53:33.434Z,98.20
2019-04-21T23:56:03.429Z,98.00
2019-04-21T23:58:34.715Z,98.60
